createdAt,value
2023-10-19T00:00:51.504Z,98840.81
2023-10-19T00:03:22.899Z,98841.97
2023-10-19T00:09:38.363Z,98839.47
2023-10-19T00:12:07.585Z,98836.28
2023-10-19T00:14:33.937Z,98844.53
2023-10-19T00:17:12.206Z,98833.78
2023-10-19T00:19:41.014Z,98830.09
2023-10-19T00:22:09.813Z,98822.88
2023-10-19T00:24:36.734Z,98820.38
2023-10-19T00:27:32.743Z,98813.84
2023-10-19T00:30:07.517Z,98808.47
2023-10-19T00:32:39.653Z,98813.81
2023-10-19T00:35:22.413Z,98820.34
2023-10-19T00:37:49.431Z,98821.16
2023-10-19T00:40:27.989Z,98820.69
2023-10-19T00:42:56.391Z,98817.28
2023-10-19T00:45:27.555Z,98815.28
2023-10-19T00:47:54.434Z,98817.06
2023-10-19T00:50:23.868Z,98803.16
2023-10-19T00:52:51.335Z,98811.78
2023-10-19T00:55:22.502Z,98798.19
2023-10-19T00:57:51.345Z,98793.66
2023-10-19T01:00:31.819Z,98794.78
2023-10-19T01:03:01.588Z,98790.72
2023-10-19T01:05:36.675Z,98792.56
2023-10-19T01:08:14.922Z,98794.41
2023-10-19T01:10:41.629Z,98792.44
2023-10-19T01:13:08.037Z,98784.06
2023-10-19T01:15:38.007Z,98779.53
2023-10-19T01:18:06.026Z,98773.22
2023-10-19T01:20:33.472Z,98773.41
2023-10-19T01:23:20.808Z,98776.09
2023-10-19T01:25:58.245Z,98767.88
2023-10-19T01:28:54.286Z,98769.38
2023-10-19T01:31:31.312Z,98761.13
2023-10-19T01:34:00.039Z,98763.44
2023-10-19T01:36:27.359Z,98769.94
2023-10-19T01:38:56.179Z,98765.41
2023-10-19T01:41:25.048Z,98761.25
2023-10-19T01:43:54.657Z,98758.19
2023-10-19T01:46:32.248Z,98757.81
2023-10-19T01:48:58.763Z,98753.78
2023-10-19T01:51:27.697Z,98765.78
2023-10-19T01:53:56.520Z,98754.22
2023-10-19T01:56:24.551Z,98748.44
2023-10-19T01:58:55.970Z,98750.81
2023-10-19T02:01:28.748Z,98747.41
2023-10-19T02:04:04.642Z,98744.16
2023-10-19T02:06:35.478Z,98744.66
2023-10-19T02:09:23.834Z,98747.13
2023-10-19T02:11:59.510Z,98738.44
2023-10-19T02:14:32.589Z,98743.88
2023-10-19T02:17:02.672Z,98734.84
2023-10-19T02:19:30.776Z,98737.88
2023-10-19T02:21:59.894Z,98731.03
2023-10-19T02:24:27.199Z,98716.78
2023-10-19T02:26:56.337Z,98722.06
2023-10-19T02:29:23.200Z,98710.38
2023-10-19T02:31:50.798Z,98720.47
2023-10-19T02:34:17.341Z,98707.88
2023-10-19T02:36:45.674Z,98709.44
2023-10-19T02:39:15.171Z,98707.59
2023-10-19T02:41:45.010Z,98709.38
2023-10-19T02:44:20.005Z,98705.84
2023-10-19T02:46:53.073Z,98708.72
2023-10-19T02:49:21.592Z,98694.09
2023-10-19T02:51:49.959Z,98690.75
2023-10-19T02:54:21.382Z,98688.22
2023-10-19T02:56:54.220Z,98691.41
2023-10-19T02:59:25.141Z,98690.38
2023-10-19T03:02:12.776Z,98687.31
2023-10-19T03:04:40.746Z,98691.00
2023-10-19T03:07:08.427Z,98689.16
2023-10-19T03:09:37.989Z,98686.13
2023-10-19T03:12:11.574Z,98690.47
2023-10-19T03:14:38.711Z,98694.63
2023-10-19T03:17:06.301Z,98695.66
2023-10-19T03:19:32.836Z,98689.25
2023-10-19T03:22:01.413Z,98696.28
2023-10-19T03:24:37.403Z,98684.91
2023-10-19T03:27:26.565Z,98687.00
2023-10-19T03:29:56.858Z,98677.28
2023-10-19T03:32:28.009Z,98679.81
2023-10-19T03:34:58.105Z,98687.69
2023-10-19T03:37:32.062Z,98685.81
2023-10-19T03:39:59.400Z,98673.41
2023-10-19T03:42:33.560Z,98670.25
2023-10-19T03:45:03.290Z,98662.84
2023-10-19T03:47:36.456Z,98662.84
2023-10-19T03:50:07.750Z,98646.28
2023-10-19T03:52:40.555Z,98645.06
2023-10-19T03:55:12.467Z,98634.72
2023-10-19T03:57:43.288Z,98638.03
2023-10-19T04:00:17.416Z,98635.53
2023-10-19T04:02:44.012Z,98625.81
2023-10-19T04:05:12.664Z,98627.47
2023-10-19T04:07:39.294Z,98627.09
2023-10-19T04:10:08.894Z,98615.06
2023-10-19T04:12:44.979Z,98607.66
2023-10-19T04:15:18.257Z,98611.81
2023-10-19T04:17:48.538Z,98612.28
2023-10-19T04:20:17.997Z,98611.63
2023-10-19T04:22:49.409Z,98616.00
2023-10-19T04:25:36.763Z,98611.63
2023-10-19T04:28:04.276Z,98604.22
2023-10-19T04:30:34.175Z,98603.38
2023-10-19T04:33:02.863Z,98610.03
2023-10-19T04:35:35.204Z,98612.53
2023-10-19T04:38:02.364Z,98610.84
2023-10-19T04:40:28.939Z,98614.56
2023-10-19T04:42:56.075Z,98618.28
2023-10-19T04:45:23.007Z,98614.22
2023-10-19T04:47:56.062Z,98618.56
2023-10-19T04:50:23.048Z,98614.22
2023-10-19T04:52:49.504Z,98615.03
2023-10-19T04:55:15.959Z,98621.44
2023-10-19T04:57:42.352Z,98626.81
2023-10-19T05:00:14.306Z,98622.63
2023-10-19T05:02:41.548Z,98625.78
2023-10-19T05:05:08.755Z,98618.38
2023-10-19T05:07:35.544Z,98622.91
2023-10-19T05:10:01.955Z,98621.88
2023-10-19T05:12:28.391Z,98620.84
2023-10-19T05:14:54.802Z,98610.94
2023-10-19T05:17:22.467Z,98618.81
2023-10-19T05:19:48.970Z,98605.13
2023-10-19T05:22:15.421Z,98606.41
2023-10-19T05:24:41.833Z,98609.91
2023-10-19T05:27:11.737Z,98613.91
2023-10-19T05:29:40.888Z,98598.97
2023-10-19T05:32:07.953Z,98604.81
2023-10-19T05:34:36.408Z,98609.34
2023-10-19T05:37:03.524Z,98596.94
2023-10-19T05:39:32.182Z,98602.31
2023-10-19T05:42:02.737Z,98603.97
2023-10-19T05:44:33.030Z,98603.78
2023-10-19T05:47:00.550Z,98602.94
2023-10-19T05:49:27.671Z,98617.03
2023-10-19T05:51:54.243Z,98609.44
2023-10-19T05:54:20.654Z,98592.66
2023-10-19T05:56:47.089Z,98588.94
2023-10-19T05:59:14.293Z,98604.06
2023-10-19T06:01:42.267Z,98610.25
2023-10-19T06:04:09.494Z,98605.25
2023-10-19T06:06:37.239Z,98606.06
2023-10-19T06:09:05.636Z,98610.63
2023-10-19T06:11:34.773Z,98610.00
2023-10-19T06:14:01.636Z,98616.00
2023-10-19T06:16:29.051Z,98605.25
2023-10-19T06:18:56.241Z,98615.25
2023-10-19T06:21:23.554Z,98603.66
2023-10-19T06:23:51.376Z,98606.97
2023-10-19T06:26:17.788Z,98610.75
2023-10-19T06:28:44.248Z,98608.28
2023-10-19T06:31:10.749Z,98606.22
2023-10-19T06:33:37.515Z,98611.41
2023-10-19T06:36:04.644Z,98617.41
2023-10-19T06:38:32.474Z,98606.66
2023-10-19T06:40:59.862Z,98611.47
2023-10-19T06:43:31.884Z,98611.28
2023-10-19T06:45:59.498Z,98607.75
2023-10-19T06:48:25.920Z,98614.41
2023-10-19T06:50:52.871Z,98613.22
2023-10-19T06:53:19.565Z,98613.03
2023-10-19T06:55:46.015Z,98589.34
2023-10-19T06:58:13.526Z,98612.00
2023-10-19T07:00:45.291Z,98615.94
2023-10-19T07:03:14.848Z,98611.44
2023-10-19T07:05:45.210Z,98614.56
2023-10-19T07:08:11.674Z,98608.34
2023-10-19T07:10:38.330Z,98614.34
2023-10-19T07:13:04.793Z,98617.25
2023-10-19T07:15:31.567Z,98616.41
2023-10-19T07:17:59.339Z,98610.63
2023-10-19T07:20:30.686Z,98611.28
2023-10-19T07:23:00.973Z,98605.72
2023-10-19T07:25:27.408Z,98612.16
2023-10-19T07:27:54.553Z,98604.94
2023-10-19T07:30:22.502Z,98601.47
2023-10-19T07:32:55.239Z,98605.38
2023-10-19T07:35:23.741Z,98602.50
2023-10-19T07:37:51.494Z,98601.25
2023-10-19T07:40:19.060Z,98605.63
2023-10-19T07:42:46.311Z,98611.44
2023-10-19T07:45:13.050Z,98607.31
2023-10-19T07:47:43.625Z,98611.09
2023-10-19T07:50:17.069Z,98608.22
2023-10-19T07:52:44.851Z,98614.06
2023-10-19T07:55:11.769Z,98600.41
2023-10-19T07:57:38.395Z,98595.84
2023-10-19T08:00:06.652Z,98587.38
2023-10-19T08:02:35.374Z,98592.34
2023-10-19T08:05:04.001Z,98593.38
2023-10-19T08:07:31.395Z,98586.53
2023-10-19T08:09:59.656Z,98591.53
2023-10-19T08:12:27.649Z,98601.91
2023-10-19T08:14:54.625Z,98597.34
2023-10-19T08:17:20.956Z,98605.06
2023-10-19T08:19:47.434Z,98608.38
2023-10-19T08:22:15.663Z,98611.06
2023-10-19T08:24:46.737Z,98619.78
2023-10-19T08:27:14.220Z,98615.69
2023-10-19T08:29:40.781Z,98608.84
2023-10-19T08:32:07.535Z,98614.84
2023-10-19T08:34:37.778Z,98609.47
2023-10-19T08:37:05.629Z,98613.03
2023-10-19T08:39:39.344Z,98607.03
2023-10-19T08:42:07.206Z,98604.13
2023-10-19T08:44:34.206Z,98593.38
2023-10-19T08:47:00.962Z,98591.91
2023-10-19T08:49:27.981Z,98578.50
2023-10-19T08:51:55.511Z,98580.41
2023-10-19T08:54:22.075Z,98578.53
2023-10-19T08:56:48.586Z,98583.53
2023-10-19T08:59:19.938Z,98580.84
2023-10-19T09:01:47.074Z,98601.13
2023-10-19T09:04:17.455Z,98598.84
2023-10-19T09:06:44.278Z,98583.50
2023-10-19T09:09:20.369Z,98578.38
2023-10-19T09:11:47.373Z,98575.28
2023-10-19T09:14:14.115Z,98583.66
2023-10-19T09:16:58.323Z,98571.66
2023-10-19T09:19:38.096Z,98568.16
2023-10-19T09:22:23.515Z,98567.56
2023-10-19T09:24:56.768Z,98555.31
2023-10-19T09:27:23.490Z,98560.94
2023-10-19T09:29:52.344Z,98571.53
2023-10-19T09:32:20.459Z,98565.91
2023-10-19T09:34:48.800Z,98559.28
2023-10-19T09:37:17.298Z,98548.50
2023-10-19T09:39:44.481Z,98542.28
2023-10-19T09:42:12.106Z,98540.00
2023-10-19T09:44:42.725Z,98534.56
2023-10-19T09:47:14.783Z,98533.09
2023-10-19T09:49:43.943Z,98531.00
2023-10-19T09:52:14.996Z,98533.41
2023-10-19T09:55:01.933Z,98514.72
2023-10-19T09:58:01.320Z,98523.50
2023-10-19T10:00:32.969Z,98530.09
2023-10-19T10:02:59.413Z,98537.75
2023-10-19T10:05:43.692Z,98538.81
2023-10-19T10:08:18.970Z,98541.25
2023-10-19T10:10:46.017Z,98542.88
2023-10-19T10:13:33.201Z,98535.16
2023-10-19T10:16:01.569Z,98534.91
2023-10-19T10:18:31.786Z,98542.94
2023-10-19T10:21:18.606Z,98537.75
2023-10-19T10:23:56.233Z,98540.97
2023-10-19T10:26:25.683Z,98537.44
2023-10-19T10:29:21.341Z,98532.41
2023-10-19T10:31:51.692Z,98515.78
2023-10-19T10:34:48.255Z,98521.78
2023-10-19T10:37:15.328Z,98535.78
2023-10-19T10:39:42.224Z,98527.75
2023-10-19T10:42:10.915Z,98526.97
2023-10-19T10:44:41.313Z,98515.22
2023-10-19T10:47:12.925Z,98521.88
2023-10-19T10:49:53.379Z,98524.94
2023-10-19T10:52:33.484Z,98523.09
2023-10-19T10:55:08.272Z,98522.81
2023-10-19T10:57:35.070Z,98514.94
2023-10-19T11:00:09.372Z,98514.22
2023-10-19T11:02:37.554Z,98501.97
2023-10-19T11:05:04.972Z,98510.34
2023-10-19T11:07:31.503Z,98508.06
2023-10-19T11:09:57.902Z,98507.84
2023-10-19T11:12:25.336Z,98511.47
2023-10-19T11:15:02.308Z,98509.41
2023-10-19T11:17:31.978Z,98509.06
2023-10-19T11:19:59.814Z,98506.56
2023-10-19T11:22:27.613Z,98504.53
2023-10-19T11:24:55.737Z,98505.06
2023-10-19T11:27:29.702Z,98509.13
2023-10-19T11:29:57.483Z,98495.56
2023-10-19T11:32:26.538Z,98494.97
2023-10-19T11:34:55.119Z,98489.94
2023-10-19T11:37:21.977Z,98485.03
2023-10-19T11:39:49.183Z,98484.84
2023-10-19T11:42:15.813Z,98480.78
2023-10-19T11:44:42.184Z,98473.78
2023-10-19T11:47:08.778Z,98474.63
2023-10-19T11:49:35.906Z,98463.38
2023-10-19T11:52:06.298Z,98457.53
2023-10-19T11:54:34.516Z,98461.44
2023-10-19T11:57:01.429Z,98459.19
2023-10-19T11:59:27.776Z,98455.66
2023-10-19T12:01:56.069Z,98457.91
2023-10-19T12:04:23.017Z,98463.91
2023-10-19T12:06:49.622Z,98457.25
2023-10-19T12:09:16.190Z,98443.72
2023-10-19T12:11:43.331Z,98449.03
2023-10-19T12:14:15.799Z,98446.94
2023-10-19T12:16:42.307Z,98452.72
2023-10-19T12:19:08.794Z,98450.38
2023-10-19T12:21:35.129Z,98448.88
2023-10-19T12:24:02.613Z,98452.56
2023-10-19T12:26:31.006Z,98458.59
2023-10-19T12:28:57.578Z,98447.38
2023-10-19T12:31:24.648Z,98456.41
2023-10-19T12:33:51.290Z,98451.31
2023-10-19T12:36:23.920Z,98442.41
2023-10-19T12:38:52.044Z,98447.00
2023-10-19T12:41:20.030Z,98444.97
2023-10-19T12:43:49.360Z,98441.44
2023-10-19T12:46:17.021Z,98436.25
2023-10-19T12:48:49.560Z,98431.59
2023-10-19T12:51:18.643Z,98423.31
2023-10-19T12:53:47.046Z,98429.72
2023-10-19T12:56:13.419Z,98422.88
2023-10-19T12:58:39.973Z,98417.25
2023-10-19T13:01:06.508Z,98412.25
2023-10-19T13:03:34.062Z,98412.56
2023-10-19T13:06:04.838Z,98414.91
2023-10-19T13:08:31.421Z,98406.78
2023-10-19T13:11:02.003Z,98412.78
2023-10-19T13:13:37.184Z,98406.53
2023-10-19T13:16:06.833Z,98404.53
2023-10-19T13:18:35.107Z,98405.94
2023-10-19T13:21:10.605Z,98412.66
2023-10-19T13:23:37.293Z,98409.53
2023-10-19T13:26:16.313Z,98414.13
2023-10-19T13:28:42.823Z,98424.59
2023-10-19T13:31:14.707Z,98427.19
2023-10-19T13:33:45.949Z,98426.34
2023-10-19T13:36:13.918Z,98419.06
2023-10-19T13:38:40.530Z,98412.22
2023-10-19T13:41:14.767Z,98407.28
2023-10-19T13:43:43.304Z,98402.91
2023-10-19T13:46:09.806Z,98402.09
2023-10-19T13:48:38.565Z,98396.88
2023-10-19T13:51:14.550Z,98399.41
2023-10-19T13:53:42.084Z,98389.03
2023-10-19T13:56:10.654Z,98397.97
2023-10-19T13:58:37.347Z,98395.25
2023-10-19T14:01:07.986Z,98393.47
2023-10-19T14:03:34.400Z,98382.41
2023-10-19T14:06:01.484Z,98382.66
2023-10-19T14:08:27.872Z,98381.97
2023-10-19T14:10:54.338Z,98380.09
2023-10-19T14:13:20.721Z,98381.59
2023-10-19T14:15:47.127Z,98369.19
2023-10-19T14:18:13.625Z,98380.00
2023-10-19T14:20:41.718Z,98370.47
2023-10-19T14:23:08.453Z,98367.13
2023-10-19T14:25:40.419Z,98361.72
2023-10-19T14:28:10.948Z,98354.91
2023-10-19T14:30:37.683Z,98352.88
2023-10-19T14:33:05.097Z,98344.78
2023-10-19T14:35:31.866Z,98338.53
2023-10-19T14:38:00.482Z,98337.47
2023-10-19T14:40:28.862Z,98334.78
2023-10-19T14:42:57.551Z,98326.28
2023-10-19T14:45:30.027Z,98321.41
2023-10-19T14:48:00.680Z,98311.06
2023-10-19T14:50:29.944Z,98302.78
2023-10-19T14:52:56.847Z,98284.47
2023-10-19T14:55:24.106Z,98277.38
2023-10-19T14:57:56.217Z,98259.47
2023-10-19T15:00:26.764Z,98248.06
2023-10-19T15:02:56.099Z,98224.19
2023-10-19T15:05:25.859Z,98216.81
2023-10-19T15:07:53.659Z,98208.69
2023-10-19T15:10:21.997Z,98198.50
2023-10-19T15:12:48.592Z,98194.13
2023-10-19T15:15:15.369Z,98200.81
2023-10-19T15:17:42.683Z,98209.97
2023-10-19T15:20:11.235Z,98204.56
2023-10-19T15:22:41.881Z,98200.22
2023-10-19T15:25:09.297Z,98186.63
2023-10-19T15:27:38.151Z,98194.34
2023-10-19T15:30:06.955Z,98187.75
2023-10-19T15:32:34.051Z,98181.06
2023-10-19T15:35:00.650Z,98169.19
2023-10-19T15:37:27.204Z,98167.47
2023-10-19T15:39:53.946Z,98161.00
2023-10-19T15:42:22.782Z,98154.31
2023-10-19T15:44:50.060Z,98146.38
2023-10-19T15:47:19.300Z,98138.72
2023-10-19T15:49:50.351Z,98146.97
2023-10-19T15:52:24.928Z,98130.38
2023-10-19T15:54:52.750Z,98134.13
2023-10-19T15:57:19.992Z,98139.06
2023-10-19T15:59:47.630Z,98141.84
2023-10-19T16:02:16.269Z,98160.78
2023-10-19T16:04:44.273Z,98187.22
2023-10-19T16:07:20.770Z,98177.03
2023-10-19T16:09:47.726Z,98211.19
2023-10-19T16:12:14.668Z,98189.94
2023-10-19T16:14:41.426Z,98207.97
2023-10-19T16:17:10.139Z,98214.03
2023-10-19T16:19:36.997Z,98203.69
2023-10-19T16:22:03.377Z,98200.75
2023-10-19T16:24:30.377Z,98188.50
2023-10-19T16:27:00.309Z,98192.88
2023-10-19T16:29:29.615Z,98184.00
2023-10-19T16:31:57.488Z,98171.16
2023-10-19T16:34:24.133Z,98151.88
2023-10-19T16:36:50.647Z,98145.66
2023-10-19T16:39:17.542Z,98150.81
2023-10-19T16:41:48.910Z,98161.63
2023-10-19T16:44:17.081Z,98151.72
2023-10-19T16:46:44.940Z,98150.91
2023-10-19T16:49:11.454Z,98153.38
2023-10-19T16:51:41.524Z,98162.81
2023-10-19T16:54:09.431Z,98172.81
2023-10-19T16:56:37.369Z,98178.66
2023-10-19T16:59:04.200Z,98179.78
2023-10-19T17:01:30.788Z,98186.66
2023-10-19T17:03:57.732Z,98165.84
2023-10-19T17:06:24.452Z,98199.28
2023-10-19T17:08:50.855Z,98179.47
2023-10-19T17:11:18.307Z,98177.81
2023-10-19T17:13:46.030Z,98200.31
2023-10-19T17:16:13.084Z,98213.38
2023-10-19T17:18:41.036Z,98193.63
2023-10-19T17:21:08.114Z,98200.13
2023-10-19T17:23:36.648Z,98191.16
2023-10-19T17:26:03.262Z,98189.25
2023-10-19T17:28:32.771Z,98195.13
2023-10-19T17:30:59.944Z,98177.31
2023-10-19T17:33:31.966Z,98187.53
2023-10-19T17:35:58.567Z,98172.00
2023-10-19T17:38:25.034Z,98175.94
2023-10-19T17:40:51.593Z,98179.03
2023-10-19T17:43:18.141Z,98189.00
2023-10-19T17:45:48.072Z,98170.19
2023-10-19T17:48:15.536Z,98180.06
2023-10-19T17:50:43.355Z,98170.78
2023-10-19T17:53:09.935Z,98186.97
2023-10-19T17:55:38.019Z,98194.41
2023-10-19T17:58:05.731Z,98173.78
2023-10-19T18:00:33.012Z,98180.78
2023-10-19T18:02:59.716Z,98176.19
2023-10-19T18:05:27.117Z,98183.00
2023-10-19T18:07:54.118Z,98186.75
2023-10-19T18:10:21.579Z,98180.72
2023-10-19T18:12:54.172Z,98179.50
2023-10-19T18:15:21.352Z,98207.84
2023-10-19T18:17:47.805Z,98204.91
2023-10-19T18:20:17.182Z,98200.34
2023-10-19T18:22:43.822Z,98210.91
2023-10-19T18:25:13.927Z,98210.72
2023-10-19T18:27:42.617Z,98201.56
2023-10-19T18:30:13.649Z,98197.59
2023-10-19T18:32:41.760Z,98170.00
2023-10-19T18:35:09.170Z,98155.03
2023-10-19T18:37:35.873Z,98143.28
2023-10-19T18:40:03.478Z,98145.81
2023-10-19T18:42:31.406Z,98149.34
2023-10-19T18:44:59.966Z,98146.50
2023-10-19T18:47:26.761Z,98141.91
2023-10-19T18:49:56.708Z,98141.91
2023-10-19T18:52:23.290Z,98133.81
2023-10-19T18:54:49.714Z,98131.13
2023-10-19T18:57:16.109Z,98124.03
2023-10-19T18:59:42.479Z,98114.25
2023-10-19T19:02:10.406Z,98119.50
2023-10-19T19:04:38.514Z,98124.91
2023-10-19T19:07:05.912Z,98124.91
2023-10-19T19:09:32.490Z,98119.06
2023-10-19T19:11:58.931Z,98114.72
2023-10-19T19:14:25.861Z,98110.97
2023-10-19T19:16:52.625Z,98110.75
2023-10-19T19:19:19.220Z,98096.28
2023-10-19T19:21:45.812Z,98106.00
2023-10-19T19:24:12.218Z,98110.13
2023-10-19T19:26:38.734Z,98103.47
2023-10-19T19:29:08.429Z,98100.78
2023-10-19T19:31:35.588Z,98095.59
2023-10-19T19:34:03.296Z,98098.53
2023-10-19T19:36:29.834Z,98097.53
2023-10-19T19:38:56.358Z,98106.44
2023-10-19T19:41:24.605Z,98106.84
2023-10-19T19:43:53.278Z,98096.69
2023-10-19T19:46:19.946Z,98097.16
2023-10-19T19:48:46.567Z,98090.13
2023-10-19T19:51:15.820Z,98095.50
2023-10-19T19:53:44.413Z,98091.16
2023-10-19T19:56:10.879Z,98084.94
2023-10-19T19:58:37.241Z,98088.25
2023-10-19T20:01:04.166Z,98089.28
2023-10-19T20:03:32.839Z,98087.25
2023-10-19T20:06:00.190Z,98092.41
2023-10-19T20:08:26.681Z,98091.44
2023-10-19T20:10:54.013Z,98096.00
2023-10-19T20:13:21.262Z,98092.91
2023-10-19T20:15:47.744Z,98109.72
2023-10-19T20:18:15.331Z,98119.91
2023-10-19T20:20:41.801Z,98106.03
2023-10-19T20:23:08.810Z,98091.50
2023-10-19T20:25:35.891Z,98100.63
2023-10-19T20:28:05.387Z,98089.63
2023-10-19T20:30:34.431Z,98088.19
2023-10-19T20:33:00.863Z,98091.50
2023-10-19T20:35:27.649Z,98081.31
2023-10-19T20:37:54.500Z,98076.72
2023-10-19T20:40:22.422Z,98074.47
2023-10-19T20:42:50.115Z,98075.31
2023-10-19T20:45:20.230Z,98074.47
2023-10-19T20:47:50.086Z,98066.16
2023-10-19T20:50:17.539Z,98056.41
2023-10-19T20:52:44.061Z,98046.69
2023-10-19T20:55:12.432Z,98044.44
2023-10-19T20:57:39.017Z,98054.78
2023-10-19T21:00:07.822Z,98040.41
2023-10-19T21:02:34.632Z,98040.22
2023-10-19T21:05:01.150Z,98030.66
2023-10-19T21:07:27.478Z,98032.09
2023-10-19T21:09:54.001Z,98017.78
2023-10-19T21:12:20.351Z,98021.66
2023-10-19T21:14:46.758Z,98022.25
2023-10-19T21:17:14.008Z,98029.09
2023-10-19T21:19:40.544Z,98020.31
2023-10-19T21:22:08.435Z,98020.84
2023-10-19T21:24:35.402Z,98014.00
2023-10-19T21:27:02.063Z,98001.91
2023-10-19T21:29:28.541Z,97991.50
2023-10-19T21:31:55.013Z,97990.47
2023-10-19T21:34:21.415Z,97981.06
2023-10-19T21:36:47.799Z,97981.66
2023-10-19T21:39:14.272Z,97976.66
2023-10-19T21:41:40.745Z,97977.69
2023-10-19T21:44:07.222Z,97971.03
2023-10-19T21:46:33.708Z,97977.00
2023-10-19T21:49:00.133Z,97971.38
2023-10-19T21:51:29.320Z,97958.72
2023-10-19T21:53:55.658Z,97940.50
2023-10-19T21:56:22.047Z,97932.41
2023-10-19T21:58:48.473Z,97909.16
2023-10-19T22:01:21.063Z,97906.31
2023-10-19T22:03:49.134Z,97925.22
2023-10-19T22:06:16.779Z,97925.88
2023-10-19T22:08:43.168Z,97916.97
2023-10-19T22:11:09.951Z,97902.28
2023-10-19T22:13:36.431Z,97905.81
2023-10-19T22:16:03.021Z,97901.47
2023-10-19T22:18:29.841Z,97900.88
2023-10-19T22:20:57.282Z,97901.69
2023-10-19T22:23:23.796Z,97887.41
2023-10-19T22:25:50.258Z,97888.09
2023-10-19T22:28:17.337Z,97895.00
2023-10-19T22:30:43.722Z,97905.41
2023-10-19T22:33:10.199Z,97894.63
2023-10-19T22:35:38.037Z,97893.78
2023-10-19T22:38:05.078Z,97896.19
2023-10-19T22:40:31.544Z,97889.22
2023-10-19T22:42:58.120Z,97881.59
2023-10-19T22:45:25.433Z,97873.50
2023-10-19T22:47:53.074Z,97872.44
2023-10-19T22:50:19.773Z,97870.94
2023-10-19T22:52:46.231Z,97872.94
2023-10-19T22:55:13.908Z,97870.03
2023-10-19T22:57:43.711Z,97876.34
2023-10-19T23:00:15.629Z,97880.69
2023-10-19T23:02:46.370Z,97867.19
2023-10-19T23:05:14.259Z,97863.44
2023-10-19T23:07:42.237Z,97852.28
2023-10-19T23:10:09.605Z,97857.84
2023-10-19T23:12:36.863Z,97856.97
2023-10-19T23:15:10.170Z,97847.06
2023-10-19T23:17:42.471Z,97838.84
2023-10-19T23:20:21.959Z,97841.25
2023-10-19T23:22:49.078Z,97844.06
2023-10-19T23:25:15.685Z,97843.25
2023-10-19T23:27:43.130Z,97839.50
2023-10-19T23:30:10.204Z,97839.81
2023-10-19T23:32:36.684Z,97831.28
2023-10-19T23:35:03.294Z,97829.19
2023-10-19T23:37:29.670Z,97819.38
2023-10-19T23:39:56.133Z,97809.44
2023-10-19T23:42:22.515Z,97797.09
2023-10-19T23:44:48.925Z,97804.78
2023-10-19T23:47:15.358Z,97815.34
2023-10-19T23:49:41.871Z,97811.16
2023-10-19T23:52:08.306Z,97815.59
2023-10-19T23:54:34.660Z,97806.22
2023-10-19T23:57:01.184Z,97811.00
2023-10-19T23:59:29.621Z,97809.94
